sensor_id;sensor_type;location;lat;lon;timestamp;P1;durP1;ratioP1;P2;durP2;ratioP2
23252;SDS011;11795;47.054;15.408;2023-12-20T00:01:49;15.5;;;11.7;;
23252;SDS011;11795;47.054;15.408;2023-12-20T00:03:49;13.6;;;9.7;;
23252;SDS011;11795;47.054;15.408;2023-12-20T00:05:49;13.6;;;9.7;;
23252;SDS011;11795;47.054;15.408;2023-12-20T00:07:49;13.6;;;9.7;;
23252;SDS011;11795;47.054;15.408;2023-12-20T00:09:49;12.1;;;8.7;;
23252;SDS011;11795;47.054;15.408;2023-12-20T00:11:49;12.1;;;8.7;;
23252;SDS011;11795;47.054;15.408;2023-12-20T00:13:49;15.4;;;10.7;;
23252;SDS011;11795;47.054;15.408;2023-12-20T00:15:49;15.4;;;10.7;;
23252;SDS011;11795;47.054;15.408;2023-12-20T00:17:49;15.4;;;10.7;;
23252;SDS011;11795;47.054;15.408;2023-12-20T00:19:49;21.3;;;15.1;;
23252;SDS011;11795;47.054;15.408;2023-12-20T00:21:49;21.3;;;15.1;;
23252;SDS011;11795;47.054;15.408;2023-12-20T00:23:49;20.9;;;15.0;;
23252;SDS011;11795;47.054;15.408;2023-12-20T00:25:49;20.9;;;15.0;;
23252;SDS011;11795;47.054;15.408;2023-12-20T00:27:49;20.9;;;15.0;;
23252;SDS011;11795;47.054;15.408;2023-12-20T00:29:50;17.7;;;12.5;;
23252;SDS011;11795;47.054;15.408;2023-12-20T00:31:49;17.7;;;12.5;;
23252;SDS011;11795;47.054;15.408;2023-12-20T00:33:49;16.6;;;12.3;;
23252;SDS011;11795;47.054;15.408;2023-12-20T00:35:49;16.6;;;12.3;;
23252;SDS011;11795;47.054;15.408;2023-12-20T00:37:49;16.6;;;12.3;;
23252;SDS011;11795;47.054;15.408;2023-12-20T00:39:49;20.7;;;13.7;;
23252;SDS011;11795;47.054;15.408;2023-12-20T00:41:49;20.7;;;13.7;;
23252;SDS011;11795;47.054;15.408;2023-12-20T00:43:49;22.1;;;14.7;;
23252;SDS011;11795;47.054;15.408;2023-12-20T00:45:49;22.1;;;14.7;;
23252;SDS011;11795;47.054;15.408;2023-12-20T00:47:49;22.1;;;14.7;;
23252;SDS011;11795;47.054;15.408;2023-12-20T00:49:49;19.7;;;13.7;;
23252;SDS011;11795;47.054;15.408;2023-12-20T00:51:50;19.7;;;13.7;;
23252;SDS011;11795;47.054;15.408;2023-12-20T00:53:49;23.2;;;15.9;;
23252;SDS011;11795;47.054;15.408;2023-12-20T00:55:50;23.2;;;15.9;;
23252;SDS011;11795;47.054;15.408;2023-12-20T00:57:49;23.2;;;15.9;;
23252;SDS011;11795;47.054;15.408;2023-12-20T00:59:49;21.0;;;14.7;;
23252;SDS011;11795;47.054;15.408;2023-12-20T01:01:49;21.0;;;14.7;;
23252;SDS011;11795;47.054;15.408;2023-12-20T01:03:51;25.3;;;17.3;;
23252;SDS011;11795;47.054;15.408;2023-12-20T01:05:49;25.3;;;17.3;;
23252;SDS011;11795;47.054;15.408;2023-12-20T01:07:49;25.3;;;17.3;;
23252;SDS011;11795;47.054;15.408;2023-12-20T01:09:49;22.7;;;16.1;;
23252;SDS011;11795;47.054;15.408;2023-12-20T01:11:49;22.7;;;16.1;;
23252;SDS011;11795;47.054;15.408;2023-12-20T01:13:49;25.9;;;17.8;;
23252;SDS011;11795;47.054;15.408;2023-12-20T01:15:49;25.9;;;17.8;;
23252;SDS011;11795;47.054;15.408;2023-12-20T01:17:50;25.9;;;17.8;;
23252;SDS011;11795;47.054;15.408;2023-12-20T01:19:49;24.0;;;16.8;;
23252;SDS011;11795;47.054;15.408;2023-12-20T01:21:49;24.0;;;16.8;;
23252;SDS011;11795;47.054;15.408;2023-12-20T01:23:49;24.8;;;16.6;;
23252;SDS011;11795;47.054;15.408;2023-12-20T01:25:49;24.8;;;16.6;;
23252;SDS011;11795;47.054;15.408;2023-12-20T01:27:48;24.8;;;16.6;;
23252;SDS011;11795;47.054;15.408;2023-12-20T01:29:49;23.8;;;16.0;;
23252;SDS011;11795;47.054;15.408;2023-12-20T01:31:48;23.8;;;16.0;;
23252;SDS011;11795;47.054;15.408;2023-12-20T01:33:49;23.6;;;15.6;;
23252;SDS011;11795;47.054;15.408;2023-12-20T01:35:49;23.6;;;15.6;;
23252;SDS011;11795;47.054;15.408;2023-12-20T01:37:48;23.6;;;15.6;;
23252;SDS011;11795;47.054;15.408;2023-12-20T01:39:49;25.2;;;17.3;;
23252;SDS011;11795;47.054;15.408;2023-12-20T01:41:49;25.2;;;17.3;;
23252;SDS011;11795;47.054;15.408;2023-12-20T01:43:49;21.5;;;15.6;;
23252;SDS011;11795;47.054;15.408;2023-12-20T01:45:48;21.5;;;15.6;;
23252;SDS011;11795;47.054;15.408;2023-12-20T01:47:48;21.5;;;15.6;;
23252;SDS011;11795;47.054;15.408;2023-12-20T01:49:49;23.0;;;15.3;;
23252;SDS011;11795;47.054;15.408;2023-12-20T01:51:49;23.0;;;15.3;;
23252;SDS011;11795;47.054;15.408;2023-12-20T01:53:49;23.9;;;15.9;;
23252;SDS011;11795;47.054;15.408;2023-12-20T01:55:49;23.9;;;15.9;;
23252;SDS011;11795;47.054;15.408;2023-12-20T01:57:49;23.9;;;15.9;;
23252;SDS011;11795;47.054;15.408;2023-12-20T01:59:49;24.2;;;16.3;;
23252;SDS011;11795;47.054;15.408;2023-12-20T02:01:48;24.2;;;16.3;;
23252;SDS011;11795;47.054;15.408;2023-12-20T02:03:49;25.1;;;16.1;;
23252;SDS011;11795;47.054;15.408;2023-12-20T02:05:49;25.1;;;16.1;;
23252;SDS011;11795;47.054;15.408;2023-12-20T02:07:48;25.1;;;16.1;;
23252;SDS011;11795;47.054;15.408;2023-12-20T02:09:49;23.9;;;15.4;;
23252;SDS011;11795;47.054;15.408;2023-12-20T02:11:49;23.9;;;15.4;;
23252;SDS011;11795;47.054;15.408;2023-12-20T02:13:48;26.1;;;18.1;;
23252;SDS011;11795;47.054;15.408;2023-12-20T02:15:48;26.1;;;18.1;;
23252;SDS011;11795;47.054;15.408;2023-12-20T02:17:49;26.1;;;18.1;;
23252;SDS011;11795;47.054;15.408;2023-12-20T02:19:49;23.0;;;15.8;;
23252;SDS011;11795;47.054;15.408;2023-12-20T02:21:48;23.0;;;15.8;;
23252;SDS011;11795;47.054;15.408;2023-12-20T02:23:48;26.0;;;16.7;;
23252;SDS011;11795;47.054;15.408;2023-12-20T02:25:48;26.0;;;16.7;;
23252;SDS011;11795;47.054;15.408;2023-12-20T02:27:48;26.0;;;16.7;;
23252;SDS011;11795;47.054;15.408;2023-12-20T02:29:48;24.0;;;15.7;;
23252;SDS011;11795;47.054;15.408;2023-12-20T02:31:48;24.0;;;15.7;;
23252;SDS011;11795;47.054;15.408;2023-12-20T02:33:49;22.0;;;15.4;;
23252;SDS011;11795;47.054;15.408;2023-12-20T02:35:49;22.0;;;15.4;;
23252;SDS011;11795;47.054;15.408;2023-12-20T02:37:49;22.0;;;15.4;;
23252;SDS011;11795;47.054;15.408;2023-12-20T02:39:49;22.2;;;15.2;;
23252;SDS011;11795;47.054;15.408;2023-12-20T02:41:48;22.2;;;15.2;;
23252;SDS011;11795;47.054;15.408;2023-12-20T02:43:48;23.4;;;16.0;;
23252;SDS011;11795;47.054;15.408;2023-12-20T02:45:48;23.4;;;16.0;;
23252;SDS011;11795;47.054;15.408;2023-12-20T02:47:49;23.4;;;16.0;;
23252;SDS011;11795;47.054;15.408;2023-12-20T02:49:49;23.7;;;15.2;;
23252;SDS011;11795;47.054;15.408;2023-12-20T02:51:48;23.7;;;15.2;;
23252;SDS011;11795;47.054;15.408;2023-12-20T02:53:48;22.8;;;14.9;;
23252;SDS011;11795;47.054;15.408;2023-12-20T02:55:48;22.8;;;14.9;;
23252;SDS011;11795;47.054;15.408;2023-12-20T02:57:48;22.8;;;14.9;;
23252;SDS011;11795;47.054;15.408;2023-12-20T02:59:49;22.8;;;14.8;;
23252;SDS011;11795;47.054;15.408;2023-12-20T03:01:48;22.8;;;14.8;;
23252;SDS011;11795;47.054;15.408;2023-12-20T03:03:48;21.1;;;14.2;;
23252;SDS011;11795;47.054;15.408;2023-12-20T03:05:48;21.1;;;14.2;;
23252;SDS011;11795;47.054;15.408;2023-12-20T03:07:48;21.1;;;14.2;;
23252;SDS011;11795;47.054;15.408;2023-12-20T03:09:48;22.7;;;14.5;;
23252;SDS011;11795;47.054;15.408;2023-12-20T03:11:49;22.7;;;14.5;;
23252;SDS011;11795;47.054;15.408;2023-12-20T03:13:49;21.7;;;13.2;;
23252;SDS011;11795;47.054;15.408;2023-12-20T03:15:49;21.7;;;13.2;;
23252;SDS011;11795;47.054;15.408;2023-12-20T03:17:48;21.7;;;13.2;;
23252;SDS011;11795;47.054;15.408;2023-12-20T03:19:48;18.6;;;12.4;;
23252;SDS011;11795;47.054;15.408;2023-12-20T03:21:49;18.6;;;12.4;;
23252;SDS011;11795;47.054;15.408;2023-12-20T03:23:48;19.9;;;12.3;;
23252;SDS011;11795;47.054;15.408;2023-12-20T03:25:48;19.9;;;12.3;;
23252;SDS011;11795;47.054;15.408;2023-12-20T03:27:48;19.9;;;12.3;;
23252;SDS011;11795;47.054;15.408;2023-12-20T03:29:49;19.2;;;12.1;;
23252;SDS011;11795;47.054;15.408;2023-12-20T03:31:48;19.2;;;12.1;;
23252;SDS011;11795;47.054;15.408;2023-12-20T03:33:49;17.2;;;10.9;;
23252;SDS011;11795;47.054;15.408;2023-12-20T03:35:48;17.2;;;10.9;;
23252;SDS011;11795;47.054;15.408;2023-12-20T03:37:48;17.2;;;10.9;;
23252;SDS011;11795;47.054;15.408;2023-12-20T03:39:48;17.6;;;10.7;;
23252;SDS011;11795;47.054;15.408;2023-12-20T03:41:48;17.6;;;10.7;;
23252;SDS011;11795;47.054;15.408;2023-12-20T03:43:48;19.2;;;11.8;;
23252;SDS011;11795;47.054;15.408;2023-12-20T03:45:49;19.2;;;11.8;;
23252;SDS011;11795;47.054;15.408;2023-12-20T03:47:49;19.2;;;11.8;;
23252;SDS011;11795;47.054;15.408;2023-12-20T03:49:48;16.7;;;12.0;;
23252;SDS011;11795;47.054;15.408;2023-12-20T03:51:48;16.7;;;12.0;;
23252;SDS011;11795;47.054;15.408;2023-12-20T03:53:48;19.8;;;12.5;;
23252;SDS011;11795;47.054;15.408;2023-12-20T03:55:48;19.8;;;12.5;;
23252;SDS011;11795;47.054;15.408;2023-12-20T03:57:49;19.8;;;12.5;;
23252;SDS011;11795;47.054;15.408;2023-12-20T03:59:49;21.4;;;13.5;;
23252;SDS011;11795;47.054;15.408;2023-12-20T04:01:48;21.4;;;13.5;;
23252;SDS011;11795;47.054;15.408;2023-12-20T04:03:48;18.7;;;12.9;;
23252;SDS011;11795;47.054;15.408;2023-12-20T04:05:48;18.7;;;12.9;;
23252;SDS011;11795;47.054;15.408;2023-12-20T04:07:50;18.7;;;12.9;;
23252;SDS011;11795;47.054;15.408;2023-12-20T04:09:48;17.0;;;12.5;;
23252;SDS011;11795;47.054;15.408;2023-12-20T04:11:48;17.0;;;12.5;;
23252;SDS011;11795;47.054;15.408;2023-12-20T04:13:48;15.6;;;11.4;;
23252;SDS011;11795;47.054;15.408;2023-12-20T04:15:51;15.6;;;11.4;;
23252;SDS011;11795;47.054;15.408;2023-12-20T04:17:48;15.6;;;11.4;;
23252;SDS011;11795;47.054;15.408;2023-12-20T04:19:48;17.0;;;11.3;;
23252;SDS011;11795;47.054;15.408;2023-12-20T04:21:48;17.0;;;11.3;;
23252;SDS011;11795;47.054;15.408;2023-12-20T04:23:48;17.5;;;11.6;;
23252;SDS011;11795;47.054;15.408;2023-12-20T04:25:48;17.5;;;11.6;;
23252;SDS011;11795;47.054;15.408;2023-12-20T04:27:48;17.5;;;11.6;;
23252;SDS011;11795;47.054;15.408;2023-12-20T04:29:48;15.6;;;10.8;;
23252;SDS011;11795;47.054;15.408;2023-12-20T04:31:50;15.6;;;10.8;;
23252;SDS011;11795;47.054;15.408;2023-12-20T04:33:48;17.0;;;10.7;;
23252;SDS011;11795;47.054;15.408;2023-12-20T04:35:48;17.0;;;10.7;;
23252;SDS011;11795;47.054;15.408;2023-12-20T04:37:49;17.0;;;10.7;;
23252;SDS011;11795;47.054;15.408;2023-12-20T04:39:49;18.5;;;12.6;;
23252;SDS011;11795;47.054;15.408;2023-12-20T04:41:50;18.5;;;12.6;;
23252;SDS011;11795;47.054;15.408;2023-12-20T04:43:48;17.8;;;12.1;;
23252;SDS011;11795;47.054;15.408;2023-12-20T04:45:48;17.8;;;12.1;;
23252;SDS011;11795;47.054;15.408;2023-12-20T04:47:48;17.8;;;12.1;;
23252;SDS011;11795;47.054;15.408;2023-12-20T04:49:48;17.9;;;12.3;;
23252;SDS011;11795;47.054;15.408;2023-12-20T04:51:49;17.9;;;12.3;;
23252;SDS011;11795;47.054;15.408;2023-12-20T04:53:48;19.5;;;13.3;;
23252;SDS011;11795;47.054;15.408;2023-12-20T04:55:48;19.5;;;13.3;;
23252;SDS011;11795;47.054;15.408;2023-12-20T04:57:48;19.5;;;13.3;;
23252;SDS011;11795;47.054;15.408;2023-12-20T04:59:49;20.9;;;13.3;;
23252;SDS011;11795;47.054;15.408;2023-12-20T05:01:48;20.9;;;13.3;;
23252;SDS011;11795;47.054;15.408;2023-12-20T05:03:48;19.8;;;13.5;;
23252;SDS011;11795;47.054;15.408;2023-12-20T05:05:49;19.8;;;13.5;;
23252;SDS011;11795;47.054;15.408;2023-12-20T05:07:48;19.8;;;13.5;;
23252;SDS011;11795;47.054;15.408;2023-12-20T05:09:48;18.7;;;13.1;;
23252;SDS011;11795;47.054;15.408;2023-12-20T05:11:48;18.7;;;13.1;;
23252;SDS011;11795;47.054;15.408;2023-12-20T05:13:48;17.5;;;12.6;;
23252;SDS011;11795;47.054;15.408;2023-12-20T05:15:48;17.5;;;12.6;;
23252;SDS011;11795;47.054;15.408;2023-12-20T05:17:48;17.5;;;12.6;;
23252;SDS011;11795;47.054;15.408;2023-12-20T05:19:48;19.9;;;13.9;;
23252;SDS011;11795;47.054;15.408;2023-12-20T05:21:49;19.9;;;13.9;;
23252;SDS011;11795;47.054;15.408;2023-12-20T05:23:48;19.5;;;13.2;;
23252;SDS011;11795;47.054;15.408;2023-12-20T05:25:49;19.5;;;13.2;;
23252;SDS011;11795;47.054;15.408;2023-12-20T05:27:48;19.5;;;13.2;;
23252;SDS011;11795;47.054;15.408;2023-12-20T05:31:48;17.8;;;13.3;;
23252;SDS011;11795;47.054;15.408;2023-12-20T05:33:48;20.4;;;12.7;;
23252;SDS011;11795;47.054;15.408;2023-12-20T05:35:48;20.4;;;12.7;;
23252;SDS011;11795;47.054;15.408;2023-12-20T05:37:48;20.4;;;12.7;;
23252;SDS011;11795;47.054;15.408;2023-12-20T05:39:48;18.9;;;12.5;;
23252;SDS011;11795;47.054;15.408;2023-12-20T05:41:48;18.9;;;12.5;;
23252;SDS011;11795;47.054;15.408;2023-12-20T05:43:48;17.7;;;11.9;;
23252;SDS011;11795;47.054;15.408;2023-12-20T05:45:48;17.7;;;11.9;;
23252;SDS011;11795;47.054;15.408;2023-12-20T05:47:48;17.7;;;11.9;;
23252;SDS011;11795;47.054;15.408;2023-12-20T05:49:50;19.1;;;12.5;;
23252;SDS011;11795;47.054;15.408;2023-12-20T05:51:48;19.1;;;12.5;;
23252;SDS011;11795;47.054;15.408;2023-12-20T05:53:50;17.1;;;11.7;;
23252;SDS011;11795;47.054;15.408;2023-12-20T05:55:48;17.1;;;11.7;;
23252;SDS011;11795;47.054;15.408;2023-12-20T05:57:48;17.1;;;11.7;;
23252;SDS011;11795;47.054;15.408;2023-12-20T05:59:48;22.1;;;14.5;;
23252;SDS011;11795;47.054;15.408;2023-12-20T06:01:48;22.1;;;14.5;;
23252;SDS011;11795;47.054;15.408;2023-12-20T06:03:48;22.2;;;15.0;;
23252;SDS011;11795;47.054;15.408;2023-12-20T06:05:48;22.2;;;15.0;;
23252;SDS011;11795;47.054;15.408;2023-12-20T06:07:50;22.2;;;15.0;;
23252;SDS011;11795;47.054;15.408;2023-12-20T06:09:48;23.8;;;15.1;;
23252;SDS011;11795;47.054;15.408;2023-12-20T06:11:48;23.8;;;15.1;;
23252;SDS011;11795;47.054;15.408;2023-12-20T06:13:49;21.4;;;14.7;;
23252;SDS011;11795;47.054;15.408;2023-12-20T06:15:48;21.4;;;14.7;;
23252;SDS011;11795;47.054;15.408;2023-12-20T06:17:48;21.4;;;14.7;;
23252;SDS011;11795;47.054;15.408;2023-12-20T06:19:48;22.7;;;15.4;;
23252;SDS011;11795;47.054;15.408;2023-12-20T06:21:48;22.7;;;15.4;;
23252;SDS011;11795;47.054;15.408;2023-12-20T06:23:48;22.3;;;14.8;;
23252;SDS011;11795;47.054;15.408;2023-12-20T06:25:48;22.3;;;14.8;;
23252;SDS011;11795;47.054;15.408;2023-12-20T06:27:48;22.3;;;14.8;;
23252;SDS011;11795;47.054;15.408;2023-12-20T06:29:48;19.1;;;12.5;;
23252;SDS011;11795;47.054;15.408;2023-12-20T06:31:48;19.1;;;12.5;;
23252;SDS011;11795;47.054;15.408;2023-12-20T06:33:49;16.1;;;11.1;;
23252;SDS011;11795;47.054;15.408;2023-12-20T06:35:48;16.1;;;11.1;;
23252;SDS011;11795;47.054;15.408;2023-12-20T06:37:48;16.1;;;11.1;;
23252;SDS011;11795;47.054;15.408;2023-12-20T06:39:48;19.7;;;12.8;;
23252;SDS011;11795;47.054;15.408;2023-12-20T06:41:48;19.7;;;12.8;;
23252;SDS011;11795;47.054;15.408;2023-12-20T06:43:48;15.7;;;11.1;;
23252;SDS011;11795;47.054;15.408;2023-12-20T06:45:48;15.7;;;11.1;;
23252;SDS011;11795;47.054;15.408;2023-12-20T06:47:48;15.7;;;11.1;;
23252;SDS011;11795;47.054;15.408;2023-12-20T06:49:48;15.3;;;10.8;;
23252;SDS011;11795;47.054;15.408;2023-12-20T06:51:48;15.3;;;10.8;;
23252;SDS011;11795;47.054;15.408;2023-12-20T06:53:48;15.6;;;11.1;;
23252;SDS011;11795;47.054;15.408;2023-12-20T06:55:48;15.6;;;11.1;;
23252;SDS011;11795;47.054;15.408;2023-12-20T06:57:48;15.6;;;11.1;;
23252;SDS011;11795;47.054;15.408;2023-12-20T06:59:48;19.8;;;12.7;;
23252;SDS011;11795;47.054;15.408;2023-12-20T07:01:48;19.8;;;12.7;;
23252;SDS011;11795;47.054;15.408;2023-12-20T07:03:48;22.3;;;14.6;;
23252;SDS011;11795;47.054;15.408;2023-12-20T07:05:48;22.3;;;14.6;;
23252;SDS011;11795;47.054;15.408;2023-12-20T07:07:48;22.3;;;14.6;;
23252;SDS011;11795;47.054;15.408;2023-12-20T07:09:48;18.6;;;13.5;;
23252;SDS011;11795;47.054;15.408;2023-12-20T07:11:48;18.6;;;13.5;;
23252;SDS011;11795;47.054;15.408;2023-12-20T07:13:49;18.6;;;13.9;;
23252;SDS011;11795;47.054;15.408;2023-12-20T07:15:48;18.6;;;13.9;;
23252;SDS011;11795;47.054;15.408;2023-12-20T07:17:48;18.6;;;13.9;;
23252;SDS011;11795;47.054;15.408;2023-12-20T07:19:48;18.4;;;12.9;;
23252;SDS011;11795;47.054;15.408;2023-12-20T07:21:48;18.4;;;12.9;;
23252;SDS011;11795;47.054;15.408;2023-12-20T07:23:48;17.8;;;13.4;;
23252;SDS011;11795;47.054;15.408;2023-12-20T07:25:48;17.8;;;13.4;;
23252;SDS011;11795;47.054;15.408;2023-12-20T07:27:48;17.8;;;13.4;;
23252;SDS011;11795;47.054;15.408;2023-12-20T07:29:48;21.5;;;13.4;;
23252;SDS011;11795;47.054;15.408;2023-12-20T07:31:48;21.5;;;13.4;;
23252;SDS011;11795;47.054;15.408;2023-12-20T07:33:48;20.6;;;13.8;;
23252;SDS011;11795;47.054;15.408;2023-12-20T07:35:48;20.6;;;13.8;;
23252;SDS011;11795;47.054;15.408;2023-12-20T07:37:48;20.6;;;13.8;;
23252;SDS011;11795;47.054;15.408;2023-12-20T07:39:48;17.6;;;12.0;;
23252;SDS011;11795;47.054;15.408;2023-12-20T07:41:48;17.6;;;12.0;;
23252;SDS011;11795;47.054;15.408;2023-12-20T07:43:49;18.5;;;12.8;;
23252;SDS011;11795;47.054;15.408;2023-12-20T07:45:48;18.5;;;12.8;;
23252;SDS011;11795;47.054;15.408;2023-12-20T07:47:49;18.5;;;12.8;;
23252;SDS011;11795;47.054;15.408;2023-12-20T07:49:48;18.6;;;12.8;;
23252;SDS011;11795;47.054;15.408;2023-12-20T07:51:48;18.6;;;12.8;;
23252;SDS011;11795;47.054;15.408;2023-12-20T07:53:48;18.0;;;11.7;;
23252;SDS011;11795;47.054;15.408;2023-12-20T07:55:48;18.0;;;11.7;;
23252;SDS011;11795;47.054;15.408;2023-12-20T07:57:48;18.0;;;11.7;;
23252;SDS011;11795;47.054;15.408;2023-12-20T07:59:48;20.8;;;13.9;;
23252;SDS011;11795;47.054;15.408;2023-12-20T08:01:48;20.8;;;13.9;;
23252;SDS011;11795;47.054;15.408;2023-12-20T08:03:48;18.5;;;12.8;;
23252;SDS011;11795;47.054;15.408;2023-12-20T08:05:48;18.5;;;12.8;;
23252;SDS011;11795;47.054;15.408;2023-12-20T08:07:48;18.5;;;12.8;;
23252;SDS011;11795;47.054;15.408;2023-12-20T08:09:48;18.0;;;12.4;;
23252;SDS011;11795;47.054;15.408;2023-12-20T08:11:48;18.0;;;12.4;;
23252;SDS011;11795;47.054;15.408;2023-12-20T08:13:48;16.5;;;12.0;;
23252;SDS011;11795;47.054;15.408;2023-12-20T08:15:48;16.5;;;12.0;;
23252;SDS011;11795;47.054;15.408;2023-12-20T08:17:48;16.5;;;12.0;;
23252;SDS011;11795;47.054;15.408;2023-12-20T08:19:48;16.9;;;11.4;;
23252;SDS011;11795;47.054;15.408;2023-12-20T08:21:48;16.9;;;11.4;;
23252;SDS011;11795;47.054;15.408;2023-12-20T08:23:49;15.9;;;11.1;;
23252;SDS011;11795;47.054;15.408;2023-12-20T08:25:48;15.9;;;11.1;;
23252;SDS011;11795;47.054;15.408;2023-12-20T08:27:48;15.9;;;11.1;;
23252;SDS011;11795;47.054;15.408;2023-12-20T08:29:50;18.0;;;11.2;;
23252;SDS011;11795;47.054;15.408;2023-12-20T08:31:51;18.0;;;11.2;;
23252;SDS011;11795;47.054;15.408;2023-12-20T08:33:48;15.6;;;11.7;;
23252;SDS011;11795;47.054;15.408;2023-12-20T08:35:48;15.6;;;11.7;;
23252;SDS011;11795;47.054;15.408;2023-12-20T08:37:48;15.6;;;11.7;;
23252;SDS011;11795;47.054;15.408;2023-12-20T08:39:48;18.6;;;13.5;;
23252;SDS011;11795;47.054;15.408;2023-12-20T08:41:48;18.6;;;13.5;;
23252;SDS011;11795;47.054;15.408;2023-12-20T08:43:48;17.1;;;11.8;;
23252;SDS011;11795;47.054;15.408;2023-12-20T08:45:48;17.1;;;11.8;;
23252;SDS011;11795;47.054;15.408;2023-12-20T08:47:48;17.1;;;11.8;;
23252;SDS011;11795;47.054;15.408;2023-12-20T08:49:48;19.8;;;13.6;;
23252;SDS011;11795;47.054;15.408;2023-12-20T08:51:48;19.8;;;13.6;;
23252;SDS011;11795;47.054;15.408;2023-12-20T08:53:49;20.2;;;14.7;;
23252;SDS011;11795;47.054;15.408;2023-12-20T08:55:48;20.2;;;14.7;;
23252;SDS011;11795;47.054;15.408;2023-12-20T08:57:49;20.2;;;14.7;;
23252;SDS011;11795;47.054;15.408;2023-12-20T08:59:48;22.0;;;16.2;;
23252;SDS011;11795;47.054;15.408;2023-12-20T09:01:54;22.0;;;16.2;;
23252;SDS011;11795;47.054;15.408;2023-12-20T09:03:48;19.6;;;15.0;;
23252;SDS011;11795;47.054;15.408;2023-12-20T09:05:48;19.6;;;15.0;;
23252;SDS011;11795;47.054;15.408;2023-12-20T09:07:48;19.6;;;15.0;;
23252;SDS011;11795;47.054;15.408;2023-12-20T09:09:48;17.8;;;13.2;;
23252;SDS011;11795;47.054;15.408;2023-12-20T09:11:51;17.8;;;13.2;;
23252;SDS011;11795;47.054;15.408;2023-12-20T09:13:48;27.2;;;16.4;;
23252;SDS011;11795;47.054;15.408;2023-12-20T09:15:48;27.2;;;16.4;;
23252;SDS011;11795;47.054;15.408;2023-12-20T09:17:48;27.2;;;16.4;;
23252;SDS011;11795;47.054;15.408;2023-12-20T09:19:48;30.7;;;19.5;;
23252;SDS011;11795;47.054;15.408;2023-12-20T09:21:48;30.7;;;19.5;;
23252;SDS011;11795;47.054;15.408;2023-12-20T09:23:48;30.7;;;20.1;;
23252;SDS011;11795;47.054;15.408;2023-12-20T09:25:48;30.7;;;20.1;;
23252;SDS011;11795;47.054;15.408;2023-12-20T09:27:48;30.7;;;20.1;;
23252;SDS011;11795;47.054;15.408;2023-12-20T09:29:48;30.2;;;19.4;;
23252;SDS011;11795;47.054;15.408;2023-12-20T09:31:48;30.2;;;19.4;;
23252;SDS011;11795;47.054;15.408;2023-12-20T09:33:48;32.6;;;21.0;;
23252;SDS011;11795;47.054;15.408;2023-12-20T09:35:48;32.6;;;21.0;;
23252;SDS011;11795;47.054;15.408;2023-12-20T09:37:48;32.6;;;21.0;;
23252;SDS011;11795;47.054;15.408;2023-12-20T09:39:48;32.0;;;20.3;;
23252;SDS011;11795;47.054;15.408;2023-12-20T09:41:49;32.0;;;20.3;;
23252;SDS011;11795;47.054;15.408;2023-12-20T09:43:48;29.0;;;19.0;;
23252;SDS011;11795;47.054;15.408;2023-12-20T09:45:48;29.0;;;19.0;;
23252;SDS011;11795;47.054;15.408;2023-12-20T09:47:48;29.0;;;19.0;;
23252;SDS011;11795;47.054;15.408;2023-12-20T09:49:48;27.8;;;18.5;;
23252;SDS011;11795;47.054;15.408;2023-12-20T09:51:49;27.8;;;18.5;;
23252;SDS011;11795;47.054;15.408;2023-12-20T09:53:48;32.0;;;20.3;;
23252;SDS011;11795;47.054;15.408;2023-12-20T09:55:49;32.0;;;20.3;;
23252;SDS011;11795;47.054;15.408;2023-12-20T09:57:48;32.0;;;20.3;;
23252;SDS011;11795;47.054;15.408;2023-12-20T09:59:48;29.2;;;19.0;;
23252;SDS011;11795;47.054;15.408;2023-12-20T10:01:48;29.2;;;19.0;;
23252;SDS011;11795;47.054;15.408;2023-12-20T10:03:48;29.1;;;18.7;;
23252;SDS011;11795;47.054;15.408;2023-12-20T10:05:49;29.1;;;18.7;;
23252;SDS011;11795;47.054;15.408;2023-12-20T10:07:48;29.1;;;18.7;;
23252;SDS011;11795;47.054;15.408;2023-12-20T10:09:48;28.1;;;18.2;;
23252;SDS011;11795;47.054;15.408;2023-12-20T10:11:48;28.1;;;18.2;;
23252;SDS011;11795;47.054;15.408;2023-12-20T10:13:48;27.5;;;18.0;;
23252;SDS011;11795;47.054;15.408;2023-12-20T10:15:49;27.5;;;18.0;;
23252;SDS011;11795;47.054;15.408;2023-12-20T10:17:48;27.5;;;18.0;;
23252;SDS011;11795;47.054;15.408;2023-12-20T10:19:48;23.6;;;15.1;;
23252;SDS011;11795;47.054;15.408;2023-12-20T10:21:48;23.6;;;15.1;;
23252;SDS011;11795;47.054;15.408;2023-12-20T10:23:50;23.7;;;16.0;;
23252;SDS011;11795;47.054;15.408;2023-12-20T10:25:55;23.7;;;16.0;;
23252;SDS011;11795;47.054;15.408;2023-12-20T10:27:49;23.7;;;16.0;;
23252;SDS011;11795;47.054;15.408;2023-12-20T10:29:48;27.7;;;17.3;;
23252;SDS011;11795;47.054;15.408;2023-12-20T10:31:48;27.7;;;17.3;;
23252;SDS011;11795;47.054;15.408;2023-12-20T10:33:48;23.0;;;15.8;;
23252;SDS011;11795;47.054;15.408;2023-12-20T10:35:48;23.0;;;15.8;;
23252;SDS011;11795;47.054;15.408;2023-12-20T10:37:48;23.0;;;15.8;;
23252;SDS011;11795;47.054;15.408;2023-12-20T10:39:49;18.7;;;12.6;;
23252;SDS011;11795;47.054;15.408;2023-12-20T10:41:48;18.7;;;12.6;;
23252;SDS011;11795;47.054;15.408;2023-12-20T10:43:48;15.5;;;11.3;;
23252;SDS011;11795;47.054;15.408;2023-12-20T10:45:48;15.5;;;11.3;;
23252;SDS011;11795;47.054;15.408;2023-12-20T10:47:48;15.5;;;11.3;;
23252;SDS011;11795;47.054;15.408;2023-12-20T10:49:48;16.9;;;11.6;;
23252;SDS011;11795;47.054;15.408;2023-12-20T10:51:48;16.9;;;11.6;;
23252;SDS011;11795;47.054;15.408;2023-12-20T10:53:48;17.5;;;11.5;;
23252;SDS011;11795;47.054;15.408;2023-12-20T10:55:48;17.5;;;11.5;;
23252;SDS011;11795;47.054;15.408;2023-12-20T10:57:51;17.5;;;11.5;;
23252;SDS011;11795;47.054;15.408;2023-12-20T10:59:49;13.9;;;10.8;;
23252;SDS011;11795;47.054;15.408;2023-12-20T11:01:48;13.9;;;10.8;;
23252;SDS011;11795;47.054;15.408;2023-12-20T11:03:49;19.5;;;12.6;;
23252;SDS011;11795;47.054;15.408;2023-12-20T11:05:49;19.5;;;12.6;;
23252;SDS011;11795;47.054;15.408;2023-12-20T11:07:49;19.5;;;12.6;;
23252;SDS011;11795;47.054;15.408;2023-12-20T11:09:52;17.3;;;12.3;;
23252;SDS011;11795;47.054;15.408;2023-12-20T11:11:55;17.3;;;12.3;;
23252;SDS011;11795;47.054;15.408;2023-12-20T11:13:54;19.0;;;12.3;;
23252;SDS011;11795;47.054;15.408;2023-12-20T11:15:48;19.0;;;12.3;;
23252;SDS011;11795;47.054;15.408;2023-12-20T11:17:54;19.0;;;12.3;;
23252;SDS011;11795;47.054;15.408;2023-12-20T11:21:48;16.2;;;11.3;;
23252;SDS011;11795;47.054;15.408;2023-12-20T11:23:48;16.2;;;11.3;;
23252;SDS011;11795;47.054;15.408;2023-12-20T11:25:49;19.0;;;12.1;;
23252;SDS011;11795;47.054;15.408;2023-12-20T11:29:50;15.9;;;10.9;;
23252;SDS011;11795;47.054;15.408;2023-12-20T11:31:48;15.9;;;10.9;;
23252;SDS011;11795;47.054;15.408;2023-12-20T11:33:48;15.9;;;10.9;;
23252;SDS011;11795;47.054;15.408;2023-12-20T11:35:48;18.6;;;12.1;;
23252;SDS011;11795;47.054;15.408;2023-12-20T11:37:48;18.6;;;12.1;;
23252;SDS011;11795;47.054;15.408;2023-12-20T11:39:54;15.6;;;11.2;;
23252;SDS011;11795;47.054;15.408;2023-12-20T11:41:48;15.6;;;11.2;;
23252;SDS011;11795;47.054;15.408;2023-12-20T11:43:48;15.6;;;11.2;;
23252;SDS011;11795;47.054;15.408;2023-12-20T11:45:49;19.6;;;11.6;;
23252;SDS011;11795;47.054;15.408;2023-12-20T11:47:50;19.6;;;11.6;;
23252;SDS011;11795;47.054;15.408;2023-12-20T11:49:48;19.7;;;12.8;;
23252;SDS011;11795;47.054;15.408;2023-12-20T11:51:48;19.7;;;12.8;;
23252;SDS011;11795;47.054;15.408;2023-12-20T11:53:51;19.7;;;12.8;;
23252;SDS011;11795;47.054;15.408;2023-12-20T11:55:48;17.7;;;11.0;;
23252;SDS011;11795;47.054;15.408;2023-12-20T11:57:48;17.7;;;11.0;;
23252;SDS011;11795;47.054;15.408;2023-12-20T11:59:48;19.7;;;13.2;;